Time;durP1;ratioP1;P1;durP2;ratioP2;P2;SDS_P1;SDS_P2;PMS_P1;PMS_P2;Temp;Humidity;BMP_temperature;BMP_pressure;BME280_temperature;BME280_humidity;BME280_pressure;Samples;Min_cycle;Max_cycle;Signal;HPM_P1;HPM_P2
2022/11/27 00:01:25;;;;;;;11.60;9.80;;;;;;;;;;4976012;28;20236;-77
2022/11/27 00:03:53;;;;;;;10.40;9.40;;;;;;;;;;4960481;28;20224;-77
2022/11/27 00:06:24;;;;;;;11.03;9.23;;;;;;;;;;4989032;28;20209;-76
2022/11/27 00:08:52;;;;;;;12.30;10.33;;;;;;;;;;4943856;28;20229;-77
2022/11/27 00:11:22;;;;;;;14.27;10.67;;;;;;;;;;4972957;28;20723;-77
2022/11/27 00:13:48;;;;;;;11.53;10.43;;;;;;;;;;4975880;28;20229;-77
2022/11/27 00:16:18;;;;;;;10.93;9.77;;;;;;;;;;4958608;28;20229;-77
2022/11/27 00:18:44;;;;;;;10.23;9.23;;;;;;;;;;4975369;28;20225;-77
2022/11/27 00:21:14;;;;;;;11.67;10.47;;;;;;;;;;4986903;28;20236;-77
2022/11/27 00:23:44;;;;;;;11.87;9.97;;;;;;;;;;4990042;28;20223;-77
2022/11/27 00:26:10;;;;;;;10.53;9.50;;;;;;;;;;4969803;28;20229;-78
2022/11/27 00:28:36;;;;;;;10.57;9.33;;;;;;;;;;4971091;28;20598;-77
2022/11/27 00:31:05;;;;;;;10.80;9.70;;;;;;;;;;4961046;28;20241;-77
2022/11/27 00:33:33;;;;;;;9.67;8.80;;;;;;;;;;4979102;28;20228;-77
2022/11/27 00:36:08;;;;;;;8.97;8.07;;;;;;;;;;4990600;28;20697;-77
2022/11/27 00:38:37;;;;;;;10.33;7.30;;;;;;;;;;5002956;28;20224;-77
2022/11/27 00:41:14;;;;;;;8.83;7.93;;;;;;;;;;5012147;28;20216;-77
2022/11/27 00:43:40;;;;;;;10.47;8.00;;;;;;;;;;4994443;28;20234;-76
2022/11/27 00:46:08;;;;;;;9.03;8.13;;;;;;;;;;4994855;28;20319;-76
2022/11/27 00:48:33;;;;;;;9.87;8.20;;;;;;;;;;4996194;28;20260;-77
2022/11/27 00:51:08;;;;;;;9.00;8.10;;;;;;;;;;4995559;28;20275;-77
2022/11/27 00:53:33;;;;;;;8.53;7.57;;;;;;;;;;5009579;28;20262;-77
2022/11/27 00:56:01;;;;;;;10.40;7.20;;;;;;;;;;4979458;28;20228;-77
2022/11/27 00:58:31;;;;;;;9.30;8.33;;;;;;;;;;4981748;28;20291;-77
2022/11/27 01:01:03;;;;;;;8.60;7.70;;;;;;;;;;5010479;28;20217;-77
2022/11/27 01:03:33;;;;;;;9.70;8.70;;;;;;;;;;4968708;28;20252;-77
2022/11/27 01:06:08;;;;;;;12.73;8.07;;;;;;;;;;4978826;28;20236;-77
2022/11/27 01:08:36;;;;;;;10.37;7.80;;;;;;;;;;4994699;28;20232;-77
2022/11/27 01:11:04;;;;;;;7.53;6.93;;;;;;;;;;5011170;28;20653;-77
2022/11/27 01:13:32;;;;;;;9.27;7.23;;;;;;;;;;5011142;28;20644;-77
2022/11/27 01:15:58;;;;;;;10.57;6.90;;;;;;;;;;4995288;28;20213;-77
2022/11/27 01:18:24;;;;;;;7.77;6.03;;;;;;;;;;5009890;28;20228;-77
2022/11/27 01:20:52;;;;;;;7.53;6.83;;;;;;;;;;4994710;28;20236;-77
2022/11/27 01:23:20;;;;;;;18.00;6.77;;;;;;;;;;4983709;28;20217;-77
2022/11/27 01:25:48;;;;;;;11.07;6.73;;;;;;;;;;4988838;28;20263;-77
2022/11/27 01:28:14;;;;;;;23.40;7.37;;;;;;;;;;4991158;28;20837;-77
2022/11/27 01:30:42;;;;;;;13.27;7.30;;;;;;;;;;5011457;28;20268;-77
2022/11/27 01:33:08;;;;;;;23.27;7.43;;;;;;;;;;5009847;28;20304;-77
2022/11/27 01:35:36;;;;;;;27.97;9.70;;;;;;;;;;4992469;28;20235;-77
2022/11/27 01:38:04;;;;;;;14.97;10.30;;;;;;;;;;4976527;28;20883;-77
2022/11/27 01:40:31;;;;;;;13.97;7.23;;;;;;;;;;4997169;28;20331;-77
2022/11/27 01:42:59;;;;;;;7.93;6.07;;;;;;;;;;4997888;28;20225;-77
2022/11/27 01:45:24;;;;;;;10.63;6.27;;;;;;;;;;5030889;28;20219;-77
2022/11/27 01:47:53;;;;;;;22.70;7.07;;;;;;;;;;5028052;28;20244;-77
2022/11/27 01:50:23;;;;;;;13.93;6.83;;;;;;;;;;4983662;28;20308;-78
2022/11/27 01:52:54;;;;;;;6.13;5.70;;;;;;;;;;4976971;28;20441;-76
2022/11/27 01:55:38;;;;;;;6.20;5.60;;;;;;;;;;4995324;28;20242;-77
2022/11/27 01:58:09;;;;;;;7.20;6.50;;;;;;;;;;4993374;28;20824;-77
2022/11/27 02:00:35;;;;;;;9.57;6.73;;;;;;;;;;4995356;28;20221;-76
2022/11/27 02:03:03;;;;;;;7.70;6.47;;;;;;;;;;4988031;28;20725;-77
2022/11/27 02:05:32;;;;;;;8.03;6.87;;;;;;;;;;4995227;28;20725;-76
2022/11/27 02:08:02;;;;;;;7.67;6.87;;;;;;;;;;4983455;28;20236;-76
2022/11/27 02:10:37;;;;;;;7.50;6.80;;;;;;;;;;4987797;28;20228;-77
2022/11/27 02:13:12;;;;;;;7.03;6.33;;;;;;;;;;4984982;28;20224;-78
2022/11/27 02:15:51;;;;;;;8.20;7.10;;;;;;;;;;4995226;28;20290;-77
2022/11/27 02:18:39;;;;;;;8.67;7.03;;;;;;;;;;5008107;28;20829;-77
2022/11/27 02:21:19;;;;;;;8.30;6.80;;;;;;;;;;5025864;28;20221;-77
2022/11/27 02:24:08;;;;;;;6.47;5.87;;;;;;;;;;4978955;28;20319;-77
2022/11/27 02:26:35;;;;;;;8.40;6.63;;;;;;;;;;5005851;28;20239;-77
2022/11/27 02:29:11;;;;;;;8.97;6.57;;;;;;;;;;5009133;28;20263;-77
2022/11/27 02:32:01;;;;;;;8.83;7.17;;;;;;;;;;5008480;28;20232;-77
2022/11/27 02:34:53;;;;;;;8.50;6.87;;;;;;;;;;5009990;28;20221;-77
2022/11/27 02:37:33;;;;;;;8.00;6.60;;;;;;;;;;5024102;28;20354;-76
2022/11/27 02:40:07;;;;;;;9.60;7.70;;;;;;;;;;5006636;28;20232;-77
2022/11/27 02:42:54;;;;;;;8.23;7.33;;;;;;;;;;5026544;28;20271;-77
2022/11/27 02:45:26;;;;;;;9.20;7.23;;;;;;;;;;4993178;28;20228;-77
2022/11/27 02:47:51;;;;;;;11.10;9.00;;;;;;;;;;4987897;28;20589;-77
2022/11/27 02:50:21;;;;;;;9.17;7.67;;;;;;;;;;4979959;28;20220;-77
2022/11/27 02:52:52;;;;;;;10.93;8.90;;;;;;;;;;4990194;28;20320;-77
2022/11/27 02:55:24;;;;;;;11.60;8.87;;;;;;;;;;5007992;28;20252;-77
2022/11/27 02:57:53;;;;;;;12.37;8.43;;;;;;;;;;5010714;28;20260;-77
2022/11/27 03:00:21;;;;;;;12.10;10.10;;;;;;;;;;4991027;28;20241;-77
2022/11/27 03:02:52;;;;;;;14.77;10.67;;;;;;;;;;4994000;28;20224;-77
2022/11/27 03:05:22;;;;;;;14.47;10.20;;;;;;;;;;4993846;28;20601;-78
2022/11/27 03:08:00;;;;;;;14.03;10.97;;;;;;;;;;4993686;28;20313;-77
2022/11/27 03:10:32;;;;;;;13.53;11.03;;;;;;;;;;5005342;28;20231;-78
2022/11/27 03:13:01;;;;;;;14.93;10.63;;;;;;;;;;5009062;28;20228;-78
2022/11/27 03:15:38;;;;;;;16.60;12.40;;;;;;;;;;4999543;28;20275;-78
2022/11/27 03:18:13;;;;;;;15.97;13.50;;;;;;;;;;4991749;28;20226;-77
2022/11/27 03:20:42;;;;;;;16.97;11.63;;;;;;;;;;4985069;28;20588;-77
2022/11/27 03:23:10;;;;;;;12.97;11.63;;;;;;;;;;5006608;28;20656;-78
2022/11/27 03:25:36;;;;;;;15.97;13.63;;;;;;;;;;4992908;28;20221;-77
2022/11/27 03:28:06;;;;;;;16.90;12.70;;;;;;;;;;5006625;28;20890;-77
2022/11/27 03:30:32;;;;;;;20.70;14.73;;;;;;;;;;4984784;28;20728;-77
2022/11/27 03:33:02;;;;;;;14.47;12.77;;;;;;;;;;4978041;28;20217;-77
2022/11/27 03:35:28;;;;;;;16.33;14.00;;;;;;;;;;4989955;28;20279;-77
2022/11/27 03:37:53;;;;;;;17.67;14.37;;;;;;;;;;4991656;28;20229;-77
2022/11/27 03:40:23;;;;;;;18.20;13.43;;;;;;;;;;4991729;28;20224;-77
2022/11/27 03:43:00;;;;;;;18.80;13.20;;;;;;;;;;5007447;28;20314;-77
2022/11/27 03:45:53;;;;;;;16.30;14.10;;;;;;;;;;5010269;28;20229;-77
2022/11/27 03:48:34;;;;;;;15.27;13.67;;;;;;;;;;5009621;28;20595;-76
2022/11/27 03:51:08;;;;;;;19.50;14.97;;;;;;;;;;5024923;28;20243;-77
2022/11/27 03:53:39;;;;;;;17.43;14.20;;;;;;;;;;5024562;28;20267;-77
2022/11/27 03:56:32;;;;;;;17.77;15.17;;;;;;;;;;5007884;28;20311;-77
2022/11/27 03:59:08;;;;;;;16.60;13.63;;;;;;;;;;5007849;28;20287;-77
2022/11/27 04:01:34;;;;;;;16.20;14.40;;;;;;;;;;5007769;28;20223;-77
2022/11/27 04:03:59;;;;;;;16.20;14.03;;;;;;;;;;4980480;28;20224;-76
2022/11/27 04:06:27;;;;;;;21.63;15.73;;;;;;;;;;4991943;28;20217;-77
2022/11/27 04:08:53;;;;;;;21.73;16.47;;;;;;;;;;5002678;28;20291;-77
2022/11/27 04:11:18;;;;;;;19.90;15.87;;;;;;;;;;4994413;28;20233;-77
2022/11/27 04:13:46;;;;;;;20.10;16.47;;;;;;;;;;5013067;28;20241;-77
2022/11/27 04:16:14;;;;;;;21.77;16.37;;;;;;;;;;5002374;28;20242;-77
2022/11/27 04:18:39;;;;;;;17.67;14.87;;;;;;;;;;4988175;28;20229;-77
2022/11/27 04:21:07;;;;;;;19.73;16.77;;;;;;;;;;5029940;28;20246;-77
2022/11/27 04:23:32;;;;;;;23.33;16.43;;;;;;;;;;5010974;28;20217;-77
2022/11/27 04:26:00;;;;;;;22.00;16.80;;;;;;;;;;5001366;28;20228;-77
2022/11/27 04:28:26;;;;;;;20.27;16.77;;;;;;;;;;5014806;28;20223;-78
2022/11/27 04:30:51;;;;;;;22.00;17.17;;;;;;;;;;5037106;28;20232;-77
2022/11/27 04:33:17;;;;;;;22.33;16.47;;;;;;;;;;5004393;28;20763;-77
2022/11/27 04:35:43;;;;;;;22.03;17.03;;;;;;;;;;5013693;28;20266;-78
2022/11/27 04:38:10;;;;;;;18.87;15.30;;;;;;;;;;5009712;28;20233;-78
2022/11/27 04:40:38;;;;;;;24.20;16.07;;;;;;;;;;4994323;28;20217;-78
2022/11/27 04:43:04;;;;;;;21.10;16.90;;;;;;;;;;4993453;28;20221;-78
2022/11/27 04:45:29;;;;;;;21.23;16.87;;;;;;;;;;4998188;28;20228;-78
2022/11/27 04:47:57;;;;;;;17.70;15.13;;;;;;;;;;5016353;28;20705;-78
2022/11/27 04:50:24;;;;;;;25.13;17.27;;;;;;;;;;5029714;28;20216;-77
2022/11/27 04:52:52;;;;;;;21.10;17.17;;;;;;;;;;4996564;28;20652;-78
2022/11/27 04:55:21;;;;;;;21.57;16.40;;;;;;;;;;5016493;28;20213;-78
2022/11/27 04:57:46;;;;;;;20.00;16.30;;;;;;;;;;5018881;28;20236;-78
2022/11/27 05:00:17;;;;;;;21.57;17.53;;;;;;;;;;5016252;28;20240;-78
2022/11/27 05:02:43;;;;;;;25.93;17.33;;;;;;;;;;4999258;28;20217;-78
2022/11/27 05:05:08;;;;;;;24.83;17.87;;;;;;;;;;5031617;28;20220;-78
2022/11/27 05:07:34;;;;;;;24.00;17.73;;;;;;;;;;4982878;28;20226;-78
2022/11/27 05:10:00;;;;;;;24.57;16.80;;;;;;;;;;4995209;28;20307;-78
2022/11/27 05:12:30;;;;;;;25.00;17.67;;;;;;;;;;4983117;28;20240;-78
2022/11/27 05:15:00;;;;;;;25.37;19.67;;;;;;;;;;4997391;28;20225;-78
2022/11/27 05:17:28;;;;;;;28.43;18.57;;;;;;;;;;5008452;28;20228;-79
2022/11/27 05:19:56;;;;;;;28.87;19.17;;;;;;;;;;5004005;28;20226;-79
2022/11/27 05:22:24;;;;;;;25.13;17.93;;;;;;;;;;5015367;28;20228;-78
2022/11/27 05:24:54;;;;;;;30.37;18.27;;;;;;;;;;5000815;28;20285;-76
2022/11/27 05:27:19;;;;;;;21.73;17.80;;;;;;;;;;4978514;28;20221;-78
2022/11/27 05:29:47;;;;;;;27.53;19.10;;;;;;;;;;4989728;28;20258;-77
2022/11/27 05:32:13;;;;;;;24.67;18.40;;;;;;;;;;4983106;28;20228;-78
2022/11/27 05:34:38;;;;;;;24.83;18.20;;;;;;;;;;5010915;28;20231;-78
2022/11/27 05:37:06;;;;;;;29.00;18.23;;;;;;;;;;5014400;28;20218;-79
2022/11/27 05:39:32;;;;;;;23.80;18.73;;;;;;;;;;5014967;28;20768;-79
2022/11/27 05:41:59;;;;;;;25.33;18.07;;;;;;;;;;5015828;28;20228;-78
2022/11/27 05:44:28;;;;;;;26.20;18.40;;;;;;;;;;4996745;28;20217;-78
2022/11/27 05:46:55;;;;;;;22.83;16.40;;;;;;;;;;4999447;28;20235;-78
2022/11/27 05:49:23;;;;;;;25.83;17.37;;;;;;;;;;4992278;28;20258;-77
2022/11/27 05:51:49;;;;;;;21.63;17.03;;;;;;;;;;5021165;28;20233;-77
2022/11/27 05:54:14;;;;;;;20.57;17.33;;;;;;;;;;5009394;28;20847;-77
2022/11/27 05:56:42;;;;;;;21.17;16.03;;;;;;;;;;4993288;28;20658;-77
2022/11/27 05:59:11;;;;;;;21.83;16.83;;;;;;;;;;4988074;28;20221;-77
2022/11/27 06:01:39;;;;;;;22.27;16.53;;;;;;;;;;4978804;28;20691;-77
2022/11/27 06:04:07;;;;;;;21.67;16.13;;;;;;;;;;4993618;28;20888;-78
2022/11/27 06:06:34;;;;;;;22.83;15.80;;;;;;;;;;5008052;28;20223;-77
2022/11/27 06:09:00;;;;;;;24.93;16.23;;;;;;;;;;4993934;28;20224;-77
2022/11/27 06:11:26;;;;;;;19.67;16.67;;;;;;;;;;4978698;28;20282;-77
2022/11/27 06:13:56;;;;;;;24.83;16.80;;;;;;;;;;4980404;28;20224;-77
2022/11/27 06:16:22;;;;;;;24.67;16.03;;;;;;;;;;4987428;28;20217;-78
2022/11/27 06:18:49;;;;;;;19.97;15.87;;;;;;;;;;4987072;28;20240;-77
2022/11/27 06:21:23;;;;;;;22.53;16.07;;;;;;;;;;4989387;28;20299;-76
2022/11/27 06:23:52;;;;;;;17.73;14.07;;;;;;;;;;5007983;28;20220;-77
2022/11/27 06:26:19;;;;;;;22.63;16.37;;;;;;;;;;4989642;28;20212;-77
2022/11/27 06:28:47;;;;;;;22.17;15.27;;;;;;;;;;5006455;28;20224;-77
2022/11/27 06:31:14;;;;;;;20.43;15.13;;;;;;;;;;4986036;28;20691;-76
2022/11/27 06:33:45;;;;;;;20.33;15.20;;;;;;;;;;5007059;28;20227;-77
2022/11/27 06:36:13;;;;;;;18.33;15.20;;;;;;;;;;4995190;28;20694;-75
2022/11/27 06:38:41;;;;;;;18.23;13.63;;;;;;;;;;5022485;28;20235;-78
2022/11/27 06:41:16;;;;;;;18.83;13.87;;;;;;;;;;4977817;28;20682;-77
2022/11/27 06:43:44;;;;;;;19.90;14.60;;;;;;;;;;5008586;28;20221;-77
2022/11/27 06:46:14;;;;;;;16.23;14.47;;;;;;;;;;4979800;28;20217;-76
2022/11/27 06:48:41;;;;;;;19.20;15.00;;;;;;;;;;4984534;28;20240;-73
2022/11/27 06:51:10;;;;;;;16.80;14.13;;;;;;;;;;4980395;28;20231;-76
2022/11/27 06:53:55;;;;;;;16.83;13.60;;;;;;;;;;4973706;28;20228;-73
2022/11/27 06:56:29;;;;;;;19.07;13.70;;;;;;;;;;4972897;23;20229;-75
2022/11/27 06:58:59;;;;;;;16.50;12.53;;;;;;;;;;5011598;28;20346;-76
2022/11/27 07:01:27;;;;;;;18.40;14.03;;;;;;;;;;4964637;28;20228;-76
2022/11/27 07:03:55;;;;;;;18.17;12.37;;;;;;;;;;4995772;28;20255;-75
2022/11/27 07:06:24;;;;;;;16.50;13.17;;;;;;;;;;4963158;28;20247;-76
2022/11/27 07:08:52;;;;;;;17.10;12.33;;;;;;;;;;4956535;28;20763;-75
2022/11/27 07:11:21;;;;;;;14.60;12.30;;;;;;;;;;4980696;28;20232;-76
2022/11/27 07:13:47;;;;;;;18.40;13.83;;;;;;;;;;4980820;28;20300;-75
2022/11/27 07:16:13;;;;;;;18.80;12.60;;;;;;;;;;4958220;28;20224;-76
2022/11/27 07:21:50;;;;;;;15.90;11.73;;;;;;;;;;4956511;28;20711;-84
2022/11/27 07:24:15;;;;;;;16.53;12.47;;;;;;;;;;4924539;28;20260;-82
2022/11/27 07:26:43;;;;;;;17.90;12.07;;;;;;;;;;4954333;28;20235;-80
2022/11/27 07:29:08;;;;;;;17.83;12.77;;;;;;;;;;4915972;29;20230;-83
2022/11/27 07:31:39;;;;;;;14.87;11.50;;;;;;;;;;4928638;29;20230;-84
2022/11/27 07:34:05;;;;;;;17.57;13.17;;;;;;;;;;4926872;28;20225;-83
2022/11/27 07:36:35;;;;;;;15.30;12.23;;;;;;;;;;4944536;28;20780;-83
2022/11/27 07:39:02;;;;;;;18.83;12.43;;;;;;;;;;4938688;29;20308;-82
2022/11/27 07:41:28;;;;;;;16.27;12.87;;;;;;;;;;4921486;29;20235;-81
2022/11/27 07:43:56;;;;;;;15.40;11.57;;;;;;;;;;4937400;29;20286;-84
2022/11/27 07:46:24;;;;;;;15.17;12.00;;;;;;;;;;4920308;29;20238;-85
2022/11/27 07:48:52;;;;;;;13.43;11.33;;;;;;;;;;4922612;29;20291;-84
2022/11/27 07:51:18;;;;;;;14.60;12.10;;;;;;;;;;4926503;29;20270;-82
2022/11/27 07:53:44;;;;;;;16.67;13.10;;;;;;;;;;4924408;29;20230;-83
2022/11/27 07:56:12;;;;;;;13.30;11.70;;;;;;;;;;4923381;28;20258;-83
2022/11/27 07:58:39;;;;;;;15.97;11.67;;;;;;;;;;4914911;29;20223;-84
2022/11/27 08:01:07;;;;;;;17.70;12.27;;;;;;;;;;4920682;29;20322;-83
2022/11/27 08:03:32;;;;;;;15.13;11.30;;;;;;;;;;4937343;29;20231;-83
2022/11/27 08:05:58;;;;;;;13.87;11.73;;;;;;;;;;4940936;29;20245;-82
2022/11/27 08:08:39;;;;;;;16.60;11.83;;;;;;;;;;4904544;28;20230;-84
2022/11/27 08:11:38;;;;;;;18.30;12.30;;;;;;;;;;4913622;28;20262;-83
2022/11/27 08:14:09;;;;;;;15.57;11.13;;;;;;;;;;4902836;29;20223;-82
2022/11/27 08:16:37;;;;;;;15.87;11.90;;;;;;;;;;4918092;29;20256;-83
2022/11/27 08:19:03;;;;;;;16.10;12.27;;;;;;;;;;4901150;29;20693;-82
2022/11/27 08:21:29;;;;;;;15.80;12.07;;;;;;;;;;4907264;29;20701;-83
2022/11/27 08:23:57;;;;;;;12.73;11.30;;;;;;;;;;4899082;29;20230;-83
2022/11/27 08:26:34;;;;;;;17.13;13.00;;;;;;;;;;4926918;28;20680;-84
2022/11/27 08:29:05;;;;;;;17.40;11.77;;;;;;;;;;4925594;29;20293;-83
2022/11/27 08:31:31;;;;;;;15.70;12.10;;;;;;;;;;4898257;29;20243;-82
2022/11/27 08:33:57;;;;;;;16.10;11.20;;;;;;;;;;4914712;29;20645;-79
2022/11/27 08:36:28;;;;;;;18.00;12.60;;;;;;;;;;4918618;28;20235;-81
2022/11/27 08:38:56;;;;;;;14.87;12.13;;;;;;;;;;4935961;29;20362;-81
2022/11/27 08:41:22;;;;;;;19.20;13.00;;;;;;;;;;4938863;29;20787;-81
2022/11/27 08:43:47;;;;;;;17.30;12.27;;;;;;;;;;4951653;28;20228;-83
2022/11/27 08:46:13;;;;;;;14.57;12.13;;;;;;;;;;4915048;29;20318;-81
2022/11/27 08:48:41;;;;;;;14.17;12.57;;;;;;;;;;4952455;28;20234;-83
2022/11/27 08:51:10;;;;;;;15.97;12.30;;;;;;;;;;4906817;29;20791;-81
2022/11/27 08:53:38;;;;;;;13.83;12.13;;;;;;;;;;4939807;29;20230;-81
2022/11/27 08:56:09;;;;;;;13.83;11.83;;;;;;;;;;4916707;29;20225;-81
2022/11/27 08:58:37;;;;;;;15.97;12.80;;;;;;;;;;4917936;29;20295;-85
2022/11/27 09:01:07;;;;;;;16.43;12.23;;;;;;;;;;4927724;29;20234;-82
2022/11/27 09:03:38;;;;;;;18.73;13.90;;;;;;;;;;4928990;29;20234;-80
2022/11/27 09:06:10;;;;;;;18.50;13.23;;;;;;;;;;4921052;28;20255;-81
2022/11/27 09:08:38;;;;;;;14.80;12.93;;;;;;;;;;4947855;28;20231;-83
2022/11/27 09:11:05;;;;;;;15.73;12.03;;;;;;;;;;4917226;29;20693;-82
2022/11/27 09:13:31;;;;;;;16.03;12.43;;;;;;;;;;4925974;29;20218;-82
2022/11/27 09:16:00;;;;;;;14.77;12.27;;;;;;;;;;4931945;28;20227;-83
2022/11/27 09:18:25;;;;;;;14.00;12.17;;;;;;;;;;4920399;29;20714;-79
2022/11/27 09:21:01;;;;;;;17.20;11.93;;;;;;;;;;4938624;29;20231;-80
2022/11/27 09:23:31;;;;;;;14.77;12.30;;;;;;;;;;4919087;29;20227;-83
2022/11/27 09:26:06;;;;;;;13.87;12.27;;;;;;;;;;4937697;29;20280;-82
2022/11/27 09:28:34;;;;;;;14.97;12.00;;;;;;;;;;4932606;29;20231;-83
2022/11/27 09:31:03;;;;;;;14.17;12.67;;;;;;;;;;4933909;29;20250;-83
2022/11/27 09:33:32;;;;;;;11.63;10.43;;;;;;;;;;4931554;29;20735;-81
2022/11/27 09:35:57;;;;;;;11.73;10.63;;;;;;;;;;4933812;28;20224;-82
2022/11/27 09:38:25;;;;;;;16.43;12.07;;;;;;;;;;4935661;28;20237;-82
2022/11/27 09:40:55;;;;;;;17.43;12.20;;;;;;;;;;4929698;29;20223;-82
2022/11/27 09:43:29;;;;;;;12.60;11.30;;;;;;;;;;4915802;29;20336;-81
2022/11/27 09:46:02;;;;;;;17.10;12.63;;;;;;;;;;4948423;28;20600;-81
2022/11/27 09:48:36;;;;;;;15.37;13.53;;;;;;;;;;4920102;29;20229;-82
2022/11/27 09:51:04;;;;;;;15.03;12.27;;;;;;;;;;4929335;29;20577;-83
2022/11/27 09:54:03;;;;;;;17.30;15.50;;;;;;;;;;4917964;29;20233;-83
2022/11/27 09:56:34;;;;;;;17.80;14.27;;;;;;;;;;4921946;29;20251;-82
2022/11/27 09:59:27;;;;;;;14.03;12.47;;;;;;;;;;4959197;28;20242;-79
2022/11/27 10:02:07;;;;;;;14.53;12.07;;;;;;;;;;4947437;28;20235;-82
2022/11/27 10:04:35;;;;;;;18.87;14.03;;;;;;;;;;4929402;29;20520;-82
2022/11/27 10:07:10;;;;;;;14.47;12.63;;;;;;;;;;4942284;29;20693;-85
2022/11/27 10:09:48;;;;;;;15.83;13.07;;;;;;;;;;4930146;29;20234;-83
2022/11/27 10:12:31;;;;;;;14.50;12.70;;;;;;;;;;4939741;28;20792;-84
2022/11/27 10:15:12;;;;;;;14.40;11.97;;;;;;;;;;4942102;28;20257;-83
2022/11/27 10:18:04;;;;;;;14.30;12.80;;;;;;;;;;4918784;29;20234;-84
2022/11/27 10:20:45;;;;;;;15.67;12.20;;;;;;;;;;4934529;29;20254;-83
2022/11/27 10:23:29;;;;;;;14.77;12.10;;;;;;;;;;4944208;28;20223;-83
2022/11/27 10:26:00;;;;;;;14.63;12.07;;;;;;;;;;4953019;28;20235;-83
2022/11/27 10:28:47;;;;;;;17.03;12.37;;;;;;;;;;4932905;29;20234;-84
2022/11/27 10:31:19;;;;;;;17.23;11.77;;;;;;;;;;4942146;29;20235;-82
2022/11/27 10:33:51;;;;;;;15.30;11.97;;;;;;;;;;4927913;29;20246;-82
2022/11/27 10:36:26;;;;;;;13.07;11.33;;;;;;;;;;4948797;23;20231;-71
2022/11/27 10:38:54;;;;;;;13.07;11.47;;;;;;;;;;4952484;28;20283;-72
2022/11/27 10:41:42;;;;;;;13.33;11.93;;;;;;;;;;4948672;28;20229;-73
2022/11/27 10:44:21;;;;;;;14.57;11.10;;;;;;;;;;4956153;28;20225;-75
2022/11/27 10:46:46;;;;;;;13.83;11.70;;;;;;;;;;4980240;28;21039;-73
2022/11/27 10:49:12;;;;;;;12.40;11.20;;;;;;;;;;4962109;28;20230;-74
2022/11/27 10:51:38;;;;;;;15.27;10.83;;;;;;;;;;4968515;28;20237;-76
2022/11/27 10:54:04;;;;;;;12.33;11.17;;;;;;;;;;4971419;28;20230;-75
2022/11/27 10:56:35;;;;;;;13.00;11.57;;;;;;;;;;4981734;28;20222;-76
2022/11/27 10:59:05;;;;;;;14.93;12.03;;;;;;;;;;4982247;28;20317;-74
2022/11/27 11:01:52;;;;;;;12.83;10.77;;;;;;;;;;4977694;28;20224;-74
2022/11/27 11:04:31;;;;;;;14.23;11.17;;;;;;;;;;4978006;28;20272;-73
2022/11/27 11:06:57;;;;;;;12.87;11.50;;;;;;;;;;4963795;28;20603;-75
2022/11/27 11:09:29;;;;;;;12.50;11.07;;;;;;;;;;4962628;28;20229;-75
2022/11/27 11:12:17;;;;;;;13.38;11.98;;;;;;;;;;4977685;28;20830;-75
2022/11/27 11:15:09;;;;;;;11.47;10.33;;;;;;;;;;4964635;28;20317;-75
2022/11/27 11:17:39;;;;;;;13.20;9.30;;;;;;;;;;4953192;28;20233;-74
2022/11/27 11:20:21;;;;;;;12.53;9.27;;;;;;;;;;4976498;28;20291;-74
2022/11/27 11:22:49;;;;;;;10.33;9.30;;;;;;;;;;4979558;28;20219;-74
2022/11/27 11:25:18;;;;;;;9.43;8.57;;;;;;;;;;4962504;28;20225;-77
2022/11/27 11:27:45;;;;;;;10.73;8.20;;;;;;;;;;4954567;28;20667;-74
2022/11/27 11:30:20;;;;;;;9.93;8.10;;;;;;;;;;4971688;28;20233;-74
2022/11/27 11:32:48;;;;;;;10.30;8.20;;;;;;;;;;4969083;28;20252;-75
2022/11/27 11:35:28;;;;;;;9.57;8.00;;;;;;;;;;4969434;28;20753;-73
2022/11/27 11:38:00;;;;;;;7.33;6.53;;;;;;;;;;4978074;28;20233;-74
2022/11/27 11:40:34;;;;;;;8.17;7.10;;;;;;;;;;4979078;28;20229;-73
2022/11/27 11:43:25;;;;;;;8.53;6.97;;;;;;;;;;4974892;28;20975;-73
2022/11/27 11:45:50;;;;;;;7.77;6.97;;;;;;;;;;4966222;28;20676;-73
2022/11/27 11:48:26;;;;;;;11.93;7.03;;;;;;;;;;4975549;28;20284;-74
2022/11/27 11:50:56;;;;;;;8.23;7.47;;;;;;;;;;4956874;28;20229;-75
2022/11/27 11:53:30;;;;;;;6.87;6.20;;;;;;;;;;4974729;28;20230;-75
2022/11/27 11:56:18;;;;;;;7.70;7.00;;;;;;;;;;4983560;28;20232;-76
2022/11/27 11:59:09;;;;;;;7.87;7.07;;;;;;;;;;4981056;28;20610;-74
2022/11/27 12:02:02;;;;;;;7.93;7.13;;;;;;;;;;4968095;28;20730;-73
2022/11/27 12:04:32;;;;;;;7.40;6.73;;;;;;;;;;4972554;28;20222;-74
2022/11/27 12:07:38;;;;;;;8.30;7.00;;;;;;;;;;4979894;28;20233;-74
2022/11/27 12:10:47;;;;;;;7.27;5.80;;;;;;;;;;4966790;28;20653;-75
2022/11/27 12:13:12;;;;;;;7.87;6.07;;;;;;;;;;4966543;28;20237;-73
2022/11/27 12:15:44;;;;;;;8.63;7.10;;;;;;;;;;4982387;28;20229;-76
2022/11/27 12:18:15;;;;;;;7.47;6.70;;;;;;;;;;4981610;28;20232;-73
2022/11/27 12:20:40;;;;;;;7.73;6.93;;;;;;;;;;4978069;28;20752;-74
2022/11/27 12:23:18;;;;;;;8.03;7.03;;;;;;;;;;4958800;28;20229;-73
2022/11/27 12:26:08;;;;;;;8.57;6.80;;;;;;;;;;4983442;28;20233;-74
2022/11/27 12:29:13;;;;;;;8.40;6.97;;;;;;;;;;4986034;28;20230;-75
2022/11/27 12:32:07;;;;;;;6.77;6.17;;;;;;;;;;4979412;28;20241;-76
2022/11/27 12:34:42;;;;;;;6.87;6.17;;;;;;;;;;4982669;28;20237;-74
2022/11/27 12:37:32;;;;;;;8.10;6.50;;;;;;;;;;4983784;28;20225;-74
2022/11/27 12:40:36;;;;;;;7.33;6.47;;;;;;;;;;4982260;28;20226;-75
2022/11/27 12:43:22;;;;;;;7.23;6.53;;;;;;;;;;4972000;28;20229;-74
2022/11/27 12:46:02;;;;;;;7.00;6.17;;;;;;;;;;4982750;28;20245;-74
2022/11/27 12:48:33;;;;;;;8.57;6.77;;;;;;;;;;4972410;28;20332;-74
2022/11/27 12:51:15;;;;;;;10.07;6.87;;;;;;;;;;4985034;28;20233;-74
2022/11/27 12:54:10;;;;;;;7.47;6.40;;;;;;;;;;4962567;28;20249;-72
2022/11/27 12:56:53;;;;;;;10.07;7.57;;;;;;;;;;4984738;28;20687;-75
2022/11/27 12:59:42;;;;;;;7.80;7.10;;;;;;;;;;4966258;28;20213;-73
2022/11/27 13:02:35;;;;;;;9.70;7.97;;;;;;;;;;4979708;28;20742;-74
2022/11/27 13:05:04;;;;;;;8.80;8.00;;;;;;;;;;4982066;28;20700;-74
2022/11/27 13:07:41;;;;;;;9.00;8.03;;;;;;;;;;4974001;28;20806;-71
2022/11/27 13:10:17;;;;;;;7.27;6.50;;;;;;;;;;4967562;28;20296;-74
2022/11/27 13:12:55;;;;;;;7.60;6.80;;;;;;;;;;4986211;28;20237;-75
2022/11/27 13:15:29;;;;;;;7.67;6.83;;;;;;;;;;4984647;28;20683;-75
2022/11/27 13:18:53;;;;;;;8.40;6.53;;;;;;;;;;4981254;28;20779;-74
2022/11/27 13:21:24;;;;;;;9.00;8.13;;;;;;;;;;4950119;28;20426;-73
2022/11/27 13:23:53;;;;;;;8.37;6.30;;;;;;;;;;4944470;28;20221;-76
2022/11/27 13:26:24;;;;;;;7.67;6.33;;;;;;;;;;4928018;28;20264;-74
2022/11/27 13:28:52;;;;;;;8.20;6.07;;;;;;;;;;4929823;28;20288;-74
2022/11/27 13:31:21;;;;;;;7.17;5.80;;;;;;;;;;4951267;28;20307;-73
2022/11/27 13:33:47;;;;;;;6.57;5.93;;;;;;;;;;4966866;28;20972;-75
2022/11/27 13:36:21;;;;;;;8.60;5.83;;;;;;;;;;4979412;28;20326;-73
2022/11/27 13:39:00;;;;;;;6.63;5.70;;;;;;;;;;4982747;28;20249;-74
2022/11/27 13:41:38;;;;;;;7.60;6.37;;;;;;;;;;4966125;28;20225;-73
2022/11/27 13:44:17;;;;;;;7.20;6.07;;;;;;;;;;4981313;28;20308;-73
2022/11/27 13:46:47;;;;;;;6.80;6.17;;;;;;;;;;4962485;28;20226;-74
2022/11/27 13:49:20;;;;;;;6.33;5.73;;;;;;;;;;4963064;28;20241;-74
2022/11/27 13:51:48;;;;;;;6.43;5.83;;;;;;;;;;4979459;28;20229;-74
2022/11/27 13:54:16;;;;;;;7.37;6.27;;;;;;;;;;4979221;28;20228;-75
2022/11/27 13:56:45;;;;;;;7.70;6.30;;;;;;;;;;4971823;28;20225;-75
2022/11/27 13:59:18;;;;;;;8.20;6.63;;;;;;;;;;4979953;28;20236;-73
2022/11/27 14:02:00;;;;;;;8.17;6.30;;;;;;;;;;4979361;28;20234;-73
2022/11/27 14:04:26;;;;;;;8.30;6.67;;;;;;;;;;4979817;28;20217;-74
2022/11/27 14:07:05;;;;;;;7.50;6.87;;;;;;;;;;4972652;28;20295;-73
2022/11/27 14:09:43;;;;;;;7.03;6.17;;;;;;;;;;4963981;28;20240;-73
2022/11/27 14:12:29;;;;;;;9.23;6.87;;;;;;;;;;4963001;28;20315;-74
2022/11/27 14:15:06;;;;;;;7.33;5.97;;;;;;;;;;4982725;28;20256;-74
2022/11/27 14:17:40;;;;;;;7.93;6.67;;;;;;;;;;4977743;28;20317;-75
2022/11/27 14:20:29;;;;;;;6.50;5.90;;;;;;;;;;4981814;28;20610;-74
2022/11/27 14:22:55;;;;;;;5.97;5.37;;;;;;;;;;4966902;28;20254;-75
2022/11/27 14:25:28;;;;;;;7.13;6.37;;;;;;;;;;4964351;28;20287;-74
2022/11/27 14:28:20;;;;;;;7.20;6.50;;;;;;;;;;4949607;28;20635;-74
2022/11/27 14:30:49;;;;;;;6.97;5.63;;;;;;;;;;4954278;28;20751;-74
2022/11/27 14:33:16;;;;;;;6.60;5.97;;;;;;;;;;4979333;28;20214;-75
2022/11/27 14:35:42;;;;;;;6.77;5.47;;;;;;;;;;4956369;28;20226;-74
2022/11/27 14:38:09;;;;;;;6.87;6.17;;;;;;;;;;4966215;28;20586;-74
2022/11/27 14:40:37;;;;;;;6.83;5.83;;;;;;;;;;4981685;28;20229;-75
2022/11/27 14:43:16;;;;;;;8.27;5.77;;;;;;;;;;4963690;28;20234;-76
2022/11/27 14:45:46;;;;;;;6.30;5.70;;;;;;;;;;4982219;28;20230;-74
2022/11/27 14:48:28;;;;;;;7.37;5.93;;;;;;;;;;4978535;28;20604;-74
2022/11/27 14:50:54;;;;;;;6.67;5.90;;;;;;;;;;4935575;28;20246;-74
2022/11/27 14:53:22;;;;;;;6.53;5.93;;;;;;;;;;4959684;28;20231;-72
2022/11/27 14:55:49;;;;;;;8.63;6.00;;;;;;;;;;4979799;28;20225;-75
2022/11/27 14:58:19;;;;;;;7.17;5.90;;;;;;;;;;4965557;28;20221;-75